Tripp, South Dakota
Current Conditions -  °F | °C
As of 1:35 PM on Saturday 20 Dec 2014 (Local Time) from KYKN Reporting Station
Overcast Overcast  
Wind Chill: 25°   Ceiling: 600
Heat Index: 32°   Visibility: 4mi
Dew Point: 30°   Wind: 8mph
Humidity: 93%   Direction: 180°S
Pressure: 30.03"   Gusts: NA
Location:  43.23°N, 97.97°W
Report Text: KYKN 201935Z AUTO 18007KT 4SM OVC006 00/M01 A3003 RMK AO1
Loading
Personal Weather Stations






























Interactive Weather Map New forecast layout! Learn more

10-Day Weather Forecast

Advertisements
Track Severe Weather on mobile